createdAt,value
2017-09-02T00:00:59.711Z,0
2017-09-02T00:02:09.989Z,0
2017-09-02T00:03:20.262Z,0
2017-09-02T00:04:30.528Z,0
2017-09-02T00:05:40.794Z,0
2017-09-02T00:06:51.060Z,0
2017-09-02T00:08:01.328Z,0
2017-09-02T00:09:11.592Z,0
2017-09-02T00:10:21.865Z,0
2017-09-02T00:11:31.808Z,0
2017-09-02T00:12:41.753Z,0
2017-09-02T00:13:51.695Z,0
2017-09-02T00:15:01.956Z,0
2017-09-02T00:16:12.223Z,0
2017-09-02T00:17:22.492Z,0
2017-09-02T00:18:32.760Z,0
2017-09-02T00:19:43.023Z,0
2017-09-02T00:20:53.288Z,0
2017-09-02T00:22:03.553Z,0
2017-09-02T00:23:13.823Z,0
2017-09-02T00:24:24.091Z,0
2017-09-02T00:25:34.030Z,0
2017-09-02T00:26:43.664Z,0
2017-09-02T00:27:53.959Z,0
2017-09-02T00:29:04.229Z,0
2017-09-02T00:30:14.176Z,0
2017-09-02T00:31:24.445Z,0
2017-09-02T00:32:34.065Z,0
2017-09-02T00:33:44.333Z,0
2017-09-02T00:34:53.959Z,0
2017-09-02T00:36:04.225Z,0
2017-09-02T00:37:14.168Z,0
2017-09-02T00:38:24.463Z,0
2017-09-02T00:39:34.413Z,0
2017-09-02T00:40:44.678Z,0
2017-09-02T00:41:54.964Z,0
2017-09-02T00:43:05.241Z,0
2017-09-02T00:44:14.864Z,0
2017-09-02T00:45:25.128Z,0
2017-09-02T00:46:35.390Z,0
2017-09-02T00:47:45.333Z,0
2017-09-02T00:48:55.610Z,0
2017-09-02T00:50:05.552Z,0
2017-09-02T00:51:15.818Z,0
2017-09-02T00:52:26.089Z,0
2017-09-02T00:53:36.357Z,0
2017-09-02T00:54:46.302Z,0
2017-09-02T00:55:56.251Z,0
2017-09-02T00:57:06.193Z,0
2017-09-02T00:58:16.463Z,0
2017-09-02T00:59:26.414Z,0
2017-09-02T01:00:36.361Z,0
2017-09-02T01:01:46.627Z,0
2017-09-02T01:02:56.900Z,0
2017-09-02T01:04:06.848Z,0
2017-09-02T01:05:16.795Z,0
2017-09-02T01:06:27.063Z,0
2017-09-02T01:07:37.339Z,0
2017-09-02T01:08:47.632Z,0
2017-09-02T01:09:57.929Z,0
2017-09-02T01:11:08.214Z,0
2017-09-02T01:12:18.158Z,0
2017-09-02T01:13:28.421Z,0
2017-09-02T01:14:38.716Z,0
2017-09-02T01:15:48.978Z,0
2017-09-02T01:16:59.243Z,0
2017-09-02T01:18:09.535Z,0
2017-09-02T01:19:19.482Z,0
2017-09-02T01:20:29.433Z,0
2017-09-02T01:21:39.698Z,0
2017-09-02T01:22:49.965Z,0
2017-09-02T01:24:00.229Z,0
2017-09-02T01:25:10.170Z,0
2017-09-02T01:26:20.438Z,0
2017-09-02T01:27:30.700Z,0
2017-09-02T01:28:40.653Z,0
2017-09-02T01:29:50.915Z,0
2017-09-02T01:31:01.182Z,0
2017-09-02T01:32:11.702Z,0
2017-09-02T01:33:21.969Z,0
2017-09-02T01:34:32.241Z,0
2017-09-02T01:35:42.507Z,0
2017-09-02T01:36:52.448Z,0
2017-09-02T01:38:02.711Z,0
2017-09-02T01:39:12.980Z,0
2017-09-02T01:40:23.246Z,0
2017-09-02T01:41:33.185Z,0
2017-09-02T01:42:43.128Z,0
2017-09-02T01:43:53.074Z,0
2017-09-02T01:45:03.340Z,0
2017-09-02T01:46:13.627Z,0
2017-09-02T01:47:23.903Z,0
2017-09-02T01:48:34.166Z,0
2017-09-02T01:49:44.109Z,0
2017-09-02T01:50:54.050Z,0
2017-09-02T01:52:04.313Z,0
2017-09-02T01:53:14.586Z,0
2017-09-02T01:54:24.861Z,0
2017-09-02T01:55:34.802Z,0
2017-09-02T01:56:44.433Z,0
2017-09-02T01:57:54.696Z,0
2017-09-02T01:59:04.960Z,0
2017-09-02T02:00:14.904Z,0
2017-09-02T02:01:24.867Z,0
2017-09-02T02:02:34.824Z,0
2017-09-02T02:03:45.087Z,0
2017-09-02T02:04:55.029Z,0
2017-09-02T02:06:05.300Z,0
2017-09-02T02:07:15.240Z,0
2017-09-02T02:08:25.501Z,0
2017-09-02T02:09:35.443Z,0
2017-09-02T02:10:45.708Z,0
2017-09-02T02:11:55.653Z,0
2017-09-02T02:13:05.596Z,0
2017-09-02T02:14:15.540Z,0
2017-09-02T02:15:25.805Z,0
2017-09-02T02:16:36.089Z,0
2017-09-02T02:17:46.034Z,0
2017-09-02T02:18:56.302Z,0
2017-09-02T02:20:06.564Z,0
2017-09-02T02:21:16.835Z,0
2017-09-02T02:22:27.095Z,0
2017-09-02T02:23:37.043Z,0
2017-09-02T02:24:47.317Z,0
2017-09-02T02:25:57.584Z,0
2017-09-02T02:27:07.854Z,0
2017-09-02T02:28:18.116Z,0
2017-09-02T02:29:28.063Z,0
2017-09-02T02:30:38.483Z,0
2017-09-02T02:31:48.746Z,0
2017-09-02T02:32:59.012Z,0
2017-09-02T02:34:08.956Z,0
2017-09-02T02:35:19.226Z,0
2017-09-02T02:36:29.170Z,0
2017-09-02T02:37:39.114Z,0
2017-09-02T02:38:49.062Z,0
2017-09-02T02:39:59.325Z,0
2017-09-02T02:41:09.277Z,0
2017-09-02T02:42:19.544Z,0
2017-09-02T02:43:29.816Z,0
2017-09-02T02:44:40.082Z,0
2017-09-02T02:45:50.040Z,0
2017-09-02T02:47:00.316Z,0
2017-09-02T02:48:10.592Z,0
2017-09-02T02:49:20.858Z,0
2017-09-02T02:50:30.480Z,0
2017-09-02T02:51:40.462Z,0
2017-09-02T02:52:50.408Z,0
2017-09-02T02:54:00.673Z,0
2017-09-02T02:55:10.617Z,0
2017-09-02T02:56:20.896Z,0
2017-09-02T02:57:30.838Z,0
2017-09-02T02:58:40.777Z,0
2017-09-02T02:59:51.041Z,0
2017-09-02T03:01:01.307Z,0
2017-09-02T03:02:10.929Z,0
2017-09-02T03:03:21.191Z,0
2017-09-02T03:04:31.137Z,0
2017-09-02T03:05:41.411Z,0
2017-09-02T03:06:51.681Z,0
2017-09-02T03:08:01.948Z,0
2017-09-02T03:09:12.218Z,0
2017-09-02T03:10:22.164Z,0
2017-09-02T03:11:32.426Z,0
2017-09-02T03:12:42.688Z,0
2017-09-02T03:13:52.953Z,0
2017-09-02T03:15:03.224Z,0
2017-09-02T03:16:13.491Z,0
2017-09-02T03:17:23.762Z,0
2017-09-02T03:18:34.027Z,0
2017-09-02T03:19:43.974Z,0
2017-09-02T03:20:53.597Z,0
2017-09-02T03:22:03.861Z,0
2017-09-02T03:23:14.125Z,0
2017-09-02T03:24:24.385Z,0
2017-09-02T03:25:34.328Z,0
2017-09-02T03:26:44.598Z,0
2017-09-02T03:27:54.922Z,0
2017-09-02T03:29:05.190Z,0
2017-09-02T03:30:15.140Z,0
2017-09-02T03:31:25.083Z,0
2017-09-02T03:32:35.357Z,0
2017-09-02T03:33:45.301Z,0
2017-09-02T03:34:55.566Z,0
2017-09-02T03:36:05.833Z,0
2017-09-02T03:37:16.096Z,0
2017-09-02T03:38:26.381Z,0
2017-09-02T03:39:36.651Z,0
2017-09-02T03:40:46.597Z,0
2017-09-02T03:41:56.860Z,0
2017-09-02T03:43:07.132Z,0
2017-09-02T03:44:17.397Z,0
2017-09-02T03:45:27.664Z,0
2017-09-02T03:46:37.933Z,0
2017-09-02T03:47:48.209Z,0
2017-09-02T03:48:58.472Z,0
2017-09-02T03:50:08.736Z,0
2017-09-02T03:51:19.001Z,0
2017-09-02T03:52:29.262Z,0
2017-09-02T03:53:39.205Z,0
2017-09-02T03:54:49.469Z,0
2017-09-02T03:55:59.732Z,0
2017-09-02T03:57:09.996Z,0
2017-09-02T03:58:19.937Z,0
2017-09-02T03:59:29.886Z,0
2017-09-02T04:00:39.826Z,0
2017-09-02T04:01:50.090Z,0
2017-09-02T04:03:00.348Z,0
2017-09-02T04:04:10.299Z,0
2017-09-02T04:05:20.571Z,0
2017-09-02T04:06:30.846Z,5
2017-09-02T04:07:41.114Z,5
2017-09-02T04:08:51.377Z,5
2017-09-02T04:10:01.638Z,5
2017-09-02T04:11:11.907Z,5
2017-09-02T04:12:21.859Z,5
2017-09-02T04:13:32.124Z,5
2017-09-02T04:14:42.389Z,5
2017-09-02T04:15:54.332Z,5
2017-09-02T04:17:04.600Z,10
2017-09-02T04:18:14.542Z,10
2017-09-02T04:19:24.807Z,10
2017-09-02T04:20:35.077Z,10
2017-09-02T04:21:45.351Z,15
2017-09-02T04:22:55.632Z,15
2017-09-02T04:24:05.902Z,15
2017-09-02T04:25:16.168Z,15
2017-09-02T04:26:25.788Z,15
2017-09-02T04:27:35.409Z,15
2017-09-02T04:28:45.688Z,20
2017-09-02T04:29:55.952Z,20
2017-09-02T04:31:06.216Z,20
2017-09-02T04:32:16.157Z,20
2017-09-02T04:33:26.430Z,20
2017-09-02T04:34:36.704Z,25
2017-09-02T04:35:46.678Z,25
2017-09-02T04:36:56.958Z,25
2017-09-02T04:38:07.227Z,25
2017-09-02T04:39:17.495Z,30
2017-09-02T04:40:27.462Z,30
2017-09-02T04:41:37.723Z,30
2017-09-02T04:42:47.666Z,35
2017-09-02T04:43:57.936Z,35
2017-09-02T04:45:08.202Z,35
2017-09-02T04:46:18.474Z,35
2017-09-02T04:47:28.738Z,40
2017-09-02T04:48:38.681Z,40
2017-09-02T04:49:48.949Z,40
2017-09-02T04:50:58.897Z,45
2017-09-02T04:52:09.159Z,45
2017-09-02T04:53:19.103Z,45
2017-09-02T04:54:28.723Z,45
2017-09-02T04:55:38.994Z,50
2017-09-02T04:56:52.478Z,50
2017-09-02T04:58:02.741Z,50
2017-09-02T04:59:13.006Z,55
2017-09-02T05:00:23.269Z,55
2017-09-02T05:01:33.537Z,55
2017-09-02T05:02:43.800Z,55
2017-09-02T05:03:53.741Z,60
2017-09-02T05:05:04.008Z,65
2017-09-02T05:06:13.953Z,65
2017-09-02T05:07:24.218Z,70
2017-09-02T05:08:33.846Z,70
2017-09-02T05:09:44.108Z,75
2017-09-02T05:10:54.373Z,75
2017-09-02T05:12:04.643Z,75
2017-09-02T05:13:14.906Z,75
2017-09-02T05:14:25.169Z,80
2017-09-02T05:15:34.789Z,80
2017-09-02T05:16:44.743Z,85
2017-09-02T05:17:55.007Z,85
2017-09-02T05:19:04.949Z,85
2017-09-02T05:20:15.214Z,85
2017-09-02T05:21:25.476Z,85
2017-09-02T05:22:35.739Z,90
2017-09-02T05:23:45.687Z,90
2017-09-02T05:24:55.948Z,90
2017-09-02T05:26:06.245Z,90
2017-09-02T05:27:16.506Z,95
2017-09-02T05:28:26.456Z,95
2017-09-02T05:29:36.720Z,95
2017-09-02T05:30:46.665Z,95
2017-09-02T05:31:56.608Z,100
2017-09-02T05:33:06.870Z,100
2017-09-02T05:34:16.491Z,100
2017-09-02T05:35:26.754Z,100
2017-09-02T05:36:37.016Z,105
2017-09-02T05:37:46.959Z,105
2017-09-02T05:38:56.580Z,105
2017-09-02T05:40:06.522Z,105
2017-09-02T05:41:16.789Z,110
2017-09-02T05:42:26.410Z,110
2017-09-02T05:43:36.364Z,110
2017-09-02T05:44:46.628Z,115
2017-09-02T05:45:56.252Z,115
2017-09-02T05:47:06.518Z,115
2017-09-02T05:48:16.468Z,115
2017-09-02T05:49:26.731Z,120
2017-09-02T05:50:36.360Z,120
2017-09-02T05:51:46.623Z,120
2017-09-02T05:52:56.576Z,120
2017-09-02T05:54:06.855Z,120
2017-09-02T05:55:17.119Z,120
2017-09-02T05:56:27.065Z,120
2017-09-02T05:57:37.009Z,120
2017-09-02T05:58:46.954Z,125
2017-09-02T05:59:56.582Z,125
2017-09-02T06:01:06.847Z,125
2017-09-02T06:02:17.115Z,125
2017-09-02T06:03:27.062Z,125
2017-09-02T06:04:37.018Z,125
2017-09-02T06:05:47.286Z,125
2017-09-02T06:06:57.552Z,125
2017-09-02T06:08:07.499Z,125
2017-09-02T06:09:17.770Z,130
2017-09-02T06:10:28.035Z,130
2017-09-02T06:11:38.325Z,130
2017-09-02T06:12:48.604Z,135
2017-09-02T06:13:58.869Z,135
2017-09-02T06:15:09.152Z,135
2017-09-02T06:16:19.422Z,140
2017-09-02T06:17:29.370Z,145
2017-09-02T06:18:39.639Z,140
2017-09-02T06:19:49.904Z,145
2017-09-02T06:20:59.853Z,145
2017-09-02T06:22:09.805Z,150
2017-09-02T06:23:20.072Z,150
2017-09-02T06:24:30.016Z,160
2017-09-02T06:25:39.969Z,155
2017-09-02T06:26:50.238Z,160
2017-09-02T06:28:00.503Z,160
2017-09-02T06:29:10.457Z,160
2017-09-02T06:30:20.727Z,165
2017-09-02T06:31:30.350Z,170
2017-09-02T06:32:39.975Z,175
2017-09-02T06:33:50.243Z,170
2017-09-02T06:35:00.510Z,160
2017-09-02T06:36:10.457Z,175
2017-09-02T06:37:20.729Z,170
2017-09-02T06:38:30.684Z,180
2017-09-02T06:39:40.951Z,175
2017-09-02T06:40:50.900Z,175
2017-09-02T06:42:00.846Z,175
2017-09-02T06:43:11.118Z,190
2017-09-02T06:44:21.388Z,185
2017-09-02T06:45:31.014Z,180
2017-09-02T06:46:41.281Z,185
2017-09-02T06:47:51.228Z,195
2017-09-02T06:49:01.180Z,190
2017-09-02T06:50:11.447Z,190
2017-09-02T06:51:21.716Z,185
2017-09-02T06:52:31.978Z,185
2017-09-02T06:53:42.249Z,180
2017-09-02T06:54:52.193Z,185
2017-09-02T06:56:02.464Z,190
2017-09-02T06:57:12.733Z,185
2017-09-02T06:58:23.007Z,185
2017-09-02T06:59:32.953Z,185
2017-09-02T07:00:43.222Z,190
2017-09-02T07:01:53.490Z,195
2017-09-02T07:03:03.447Z,200
2017-09-02T07:04:13.716Z,205
2017-09-02T07:05:23.984Z,200
2017-09-02T07:06:33.949Z,190
2017-09-02T07:07:44.235Z,190
2017-09-02T07:08:54.181Z,190
2017-09-02T07:10:04.448Z,185
2017-09-02T07:11:14.717Z,185
2017-09-02T07:12:24.999Z,190
2017-09-02T07:13:35.265Z,195
2017-09-02T07:14:45.548Z,200
2017-09-02T07:15:55.817Z,205
2017-09-02T07:17:05.763Z,205
2017-09-02T07:18:15.710Z,210
2017-09-02T07:19:25.977Z,215
2017-09-02T07:20:36.252Z,220
2017-09-02T07:21:46.522Z,225
2017-09-02T07:22:56.794Z,230
2017-09-02T07:24:07.062Z,235
2017-09-02T07:25:17.326Z,245
2017-09-02T07:26:27.313Z,250
2017-09-02T07:27:37.260Z,255
2017-09-02T07:28:47.205Z,265
2017-09-02T07:29:56.827Z,270
2017-09-02T07:31:06.776Z,275
2017-09-02T07:32:16.722Z,275
2017-09-02T07:33:26.993Z,275
2017-09-02T07:34:36.940Z,275
2017-09-02T07:35:47.213Z,270
2017-09-02T07:36:57.155Z,270
2017-09-02T07:38:07.423Z,265
2017-09-02T07:39:17.690Z,260
2017-09-02T07:40:27.642Z,260
2017-09-02T07:41:37.587Z,260
2017-09-02T07:42:47.547Z,265
2017-09-02T07:43:57.813Z,270
2017-09-02T07:45:08.081Z,275
2017-09-02T07:46:18.351Z,280
2017-09-02T07:47:28.300Z,285
2017-09-02T07:48:38.575Z,290
2017-09-02T07:49:48.198Z,290
2017-09-02T07:50:58.148Z,295
2017-09-02T07:52:08.417Z,295
2017-09-02T07:53:18.694Z,295
2017-09-02T07:54:28.643Z,295
2017-09-02T07:55:38.913Z,300
2017-09-02T07:56:49.187Z,295
2017-09-02T07:57:59.460Z,300
2017-09-02T07:59:09.740Z,300
2017-09-02T08:00:19.715Z,300
2017-09-02T08:01:29.671Z,300
2017-09-02T08:02:39.619Z,305
2017-09-02T08:03:49.888Z,305
2017-09-02T08:04:59.836Z,310
2017-09-02T08:06:10.109Z,315
2017-09-02T08:07:20.377Z,320
2017-09-02T08:08:30.326Z,325
2017-09-02T08:09:40.615Z,325
2017-09-02T08:10:50.887Z,330
2017-09-02T08:12:01.156Z,325
2017-09-02T08:13:11.424Z,325
2017-09-02T08:14:21.695Z,325
2017-09-02T08:15:31.972Z,325
2017-09-02T08:16:42.245Z,325
2017-09-02T08:17:52.517Z,325
2017-09-02T08:19:02.792Z,325
2017-09-02T08:20:12.742Z,320
2017-09-02T08:21:23.008Z,320
2017-09-02T08:22:32.634Z,315
2017-09-02T08:23:42.907Z,315
2017-09-02T08:24:53.188Z,315
2017-09-02T08:26:03.147Z,320
2017-09-02T08:27:13.421Z,320
2017-09-02T08:28:23.368Z,325
2017-09-02T08:29:33.315Z,325
2017-09-02T08:30:43.267Z,325
2017-09-02T08:31:53.225Z,330
2017-09-02T08:33:03.509Z,335
2017-09-02T08:34:13.777Z,340
2017-09-02T08:35:24.050Z,345
2017-09-02T08:36:34.040Z,350
2017-09-02T08:37:44.314Z,355
2017-09-02T08:38:54.582Z,365
2017-09-02T08:40:04.533Z,370
2017-09-02T08:41:14.803Z,375
2017-09-02T08:42:24.757Z,375
2017-09-02T08:43:35.032Z,380
2017-09-02T08:44:45.307Z,375
2017-09-02T08:45:55.258Z,375
2017-09-02T08:47:05.529Z,370
2017-09-02T08:48:15.805Z,370
2017-09-02T08:49:26.081Z,370
2017-09-02T08:50:35.710Z,365
2017-09-02T08:51:45.990Z,365
2017-09-02T08:52:56.261Z,355
2017-09-02T08:54:06.538Z,345
2017-09-02T08:55:16.810Z,340
2017-09-02T08:56:27.082Z,340
2017-09-02T08:57:37.355Z,345
2017-09-02T08:58:47.303Z,345
2017-09-02T08:59:57.573Z,345
2017-09-02T09:01:07.524Z,355
2017-09-02T09:02:17.151Z,360
2017-09-02T09:03:27.428Z,370
2017-09-02T09:04:37.700Z,370
2017-09-02T09:05:47.970Z,375
2017-09-02T09:06:57.599Z,380
2017-09-02T09:08:07.872Z,390
2017-09-02T09:09:18.149Z,390
2017-09-02T09:10:28.102Z,400
2017-09-02T09:11:38.377Z,405
2017-09-02T09:12:48.326Z,405
2017-09-02T09:13:58.605Z,410
2017-09-02T09:15:08.557Z,410
2017-09-02T09:16:18.834Z,410
2017-09-02T09:17:28.786Z,405
2017-09-02T09:18:39.056Z,400
2017-09-02T09:19:49.356Z,395
2017-09-02T09:20:59.628Z,395
2017-09-02T09:22:09.937Z,395
2017-09-02T09:23:20.210Z,380
2017-09-02T09:24:30.485Z,370
2017-09-02T09:25:40.448Z,375
2017-09-02T09:26:50.719Z,365
2017-09-02T09:28:01.011Z,360
2017-09-02T09:29:11.283Z,360
2017-09-02T09:30:21.553Z,370
2017-09-02T09:31:31.502Z,365
2017-09-02T09:32:41.457Z,375
2017-09-02T09:33:51.737Z,390
2017-09-02T09:35:02.011Z,400
2017-09-02T09:36:11.963Z,405
2017-09-02T09:37:22.242Z,400
2017-09-02T09:38:32.517Z,400
2017-09-02T09:39:42.804Z,395
2017-09-02T09:40:53.085Z,395
2017-09-02T09:42:03.358Z,395
2017-09-02T09:43:13.634Z,395
2017-09-02T09:44:23.586Z,400
2017-09-02T09:45:33.541Z,415
2017-09-02T09:46:43.817Z,430
2017-09-02T09:47:54.093Z,455
2017-09-02T09:49:03.731Z,470
2017-09-02T09:50:13.682Z,475
2017-09-02T09:51:23.953Z,470
2017-09-02T09:52:33.903Z,450
2017-09-02T09:53:43.532Z,425
2017-09-02T09:54:53.165Z,410
2017-09-02T09:56:03.117Z,395
2017-09-02T09:57:13.065Z,395
2017-09-02T09:58:22.715Z,385
2017-09-02T09:59:32.341Z,390
2017-09-02T10:00:41.650Z,395
2017-09-02T10:01:51.604Z,405
2017-09-02T10:03:01.891Z,415
2017-09-02T10:04:11.863Z,410
2017-09-02T10:05:22.138Z,425
2017-09-02T10:06:32.422Z,410
2017-09-02T10:07:42.695Z,415
2017-09-02T10:08:52.967Z,415
2017-09-02T10:10:03.237Z,415
2017-09-02T10:11:13.191Z,415
2017-09-02T10:12:23.149Z,400
2017-09-02T10:13:33.428Z,410
2017-09-02T10:14:43.700Z,400
2017-09-02T10:15:53.650Z,375
2017-09-02T10:17:03.937Z,345
2017-09-02T10:18:13.895Z,315
2017-09-02T10:19:23.863Z,290
2017-09-02T10:20:33.813Z,275
2017-09-02T10:21:44.088Z,265
2017-09-02T10:22:53.394Z,265
2017-09-02T10:24:03.669Z,260
2017-09-02T10:25:13.939Z,260
2017-09-02T10:26:24.221Z,260
2017-09-02T10:27:34.173Z,250
2017-09-02T10:28:44.125Z,255
2017-09-02T10:29:54.075Z,255
2017-09-02T10:31:04.349Z,255
2017-09-02T10:32:14.300Z,255
2017-09-02T10:33:24.579Z,255
2017-09-02T10:34:34.530Z,255
2017-09-02T10:35:44.480Z,255
2017-09-02T10:36:54.750Z,260
2017-09-02T10:38:05.021Z,255
2017-09-02T10:39:15.293Z,255
2017-09-02T10:40:25.576Z,255
2017-09-02T10:41:35.535Z,255
2017-09-02T10:42:45.489Z,255
2017-09-02T10:43:55.787Z,260
2017-09-02T10:45:05.736Z,260
2017-09-02T10:46:16.012Z,260
2017-09-02T10:47:26.282Z,260
2017-09-02T10:48:36.231Z,260
2017-09-02T10:49:46.500Z,260
2017-09-02T10:50:56.775Z,260
2017-09-02T10:52:07.051Z,260
2017-09-02T10:53:17.000Z,260
2017-09-02T10:54:27.275Z,260
2017-09-02T10:55:37.548Z,260
2017-09-02T10:56:47.176Z,260
2017-09-02T10:57:57.447Z,265
2017-09-02T10:59:07.720Z,265
2017-09-02T11:00:17.991Z,265
2017-09-02T11:01:28.271Z,265
2017-09-02T11:02:38.231Z,270
2017-09-02T11:03:48.505Z,270
2017-09-02T11:04:58.775Z,275
2017-09-02T11:06:09.059Z,270
2017-09-02T11:07:19.012Z,270
2017-09-02T11:08:28.964Z,270
2017-09-02T11:09:39.241Z,275
2017-09-02T11:10:49.517Z,280
2017-09-02T11:11:59.468Z,280
2017-09-02T11:13:09.421Z,290
2017-09-02T11:14:19.703Z,490
2017-09-02T11:15:29.979Z,1460
2017-09-02T11:16:40.255Z,1625
2017-09-02T11:17:50.540Z,1645
2017-09-02T11:19:00.816Z,1560
2017-09-02T11:20:11.087Z,1495
2017-09-02T11:21:21.363Z,1565
2017-09-02T11:22:31.320Z,1430
2017-09-02T11:23:41.613Z,1345
2017-09-02T11:24:51.898Z,1435
2017-09-02T11:26:01.853Z,1425
2017-09-02T11:27:12.132Z,1345
2017-09-02T11:28:21.772Z,1335
2017-09-02T11:29:31.406Z,1350
2017-09-02T11:30:41.686Z,1275
2017-09-02T11:31:51.647Z,1265
2017-09-02T11:33:01.928Z,1450
2017-09-02T11:34:12.205Z,1305
2017-09-02T11:35:22.492Z,1250
2017-09-02T11:36:32.779Z,1315
2017-09-02T11:37:42.735Z,1305
2017-09-02T11:38:52.696Z,1365
2017-09-02T11:40:02.994Z,1295
2017-09-02T11:41:13.275Z,1175
2017-09-02T11:42:22.915Z,1310
2017-09-02T11:43:32.884Z,1325
2017-09-02T11:44:42.538Z,1205
2017-09-02T11:45:52.818Z,1220
2017-09-02T11:47:02.784Z,1275
2017-09-02T11:48:13.068Z,1335
2017-09-02T11:49:23.030Z,1350
2017-09-02T11:50:32.992Z,1400
2017-09-02T11:51:43.282Z,1450
2017-09-02T11:52:53.566Z,1490
2017-09-02T11:54:03.530Z,1515
2017-09-02T11:55:13.815Z,1440
2017-09-02T11:56:24.104Z,1510
2017-09-02T11:57:33.748Z,1495
2017-09-02T11:58:43.383Z,1475
2017-09-02T11:59:53.687Z,1440
2017-09-02T12:01:03.971Z,1520
2017-09-02T12:02:13.613Z,1610
2017-09-02T12:03:23.579Z,1590
2017-09-02T12:04:33.866Z,1565
2017-09-02T12:05:44.150Z,1655
2017-09-02T12:06:53.472Z,1735
2017-09-02T12:08:03.439Z,1675
2017-09-02T12:09:13.726Z,1620
2017-09-02T12:10:23.688Z,1740
2017-09-02T12:11:33.978Z,1745
2017-09-02T12:12:43.943Z,1625
2017-09-02T12:13:54.229Z,1515
2017-09-02T12:15:03.874Z,1595
2017-09-02T12:16:14.167Z,1625
2017-09-02T12:17:23.810Z,1660
2017-09-02T12:18:33.774Z,1700
2017-09-02T12:19:43.429Z,1985
2017-09-02T12:20:53.715Z,2470
2017-09-02T12:22:04.005Z,2750
2017-09-02T12:23:14.308Z,2195
2017-09-02T12:24:24.277Z,1825
2017-09-02T12:25:34.569Z,1830
2017-09-02T12:26:44.877Z,2005
2017-09-02T12:27:55.171Z,2075
2017-09-02T12:29:05.469Z,2045
2017-09-02T12:30:15.768Z,2140
2017-09-02T12:31:25.735Z,2245
2017-09-02T12:32:36.026Z,2465
2017-09-02T12:33:46.320Z,2465
2017-09-02T12:34:56.609Z,2435
2017-09-02T12:36:06.898Z,2300
2017-09-02T12:37:16.872Z,2540
2017-09-02T12:38:27.166Z,2320
2017-09-02T12:39:36.813Z,2410
2017-09-02T12:40:46.780Z,2710
2017-09-02T12:41:57.069Z,2730
2017-09-02T12:43:07.358Z,2785
2017-09-02T12:44:17.005Z,2830
2017-09-02T12:45:26.971Z,2785
2017-09-02T12:46:36.944Z,1775
2017-09-02T12:47:46.915Z,865
2017-09-02T12:48:56.888Z,485
2017-09-02T12:50:07.193Z,395
2017-09-02T12:51:16.847Z,385
2017-09-02T12:52:26.815Z,400
2017-09-02T12:53:37.104Z,440
2017-09-02T12:54:47.394Z,505
2017-09-02T12:55:57.681Z,640
2017-09-02T12:57:07.685Z,700
2017-09-02T12:58:17.982Z,730
2017-09-02T12:59:28.272Z,690
2017-09-02T13:00:38.560Z,610
2017-09-02T13:01:48.525Z,600
2017-09-02T13:02:58.492Z,585
2017-09-02T13:04:08.782Z,580
2017-09-02T13:05:19.069Z,590
2017-09-02T13:06:29.036Z,620
2017-09-02T13:07:39.336Z,615
2017-09-02T13:08:49.304Z,630
2017-09-02T13:09:59.596Z,640
2017-09-02T13:11:09.878Z,670
2017-09-02T13:12:19.846Z,690
2017-09-02T13:13:29.810Z,710
2017-09-02T13:14:40.089Z,750
2017-09-02T13:15:50.051Z,1070
2017-09-02T13:17:00.334Z,1260
2017-09-02T13:18:10.620Z,1620
2017-09-02T13:19:20.593Z,2275
2017-09-02T13:20:30.251Z,2965
2017-09-02T13:21:40.547Z,1190
2017-09-02T13:22:49.886Z,3220
2017-09-02T13:23:59.853Z,1775
2017-09-02T13:25:10.159Z,2780
2017-09-02T13:26:20.444Z,1260
2017-09-02T13:27:30.409Z,2980
2017-09-02T13:28:40.389Z,3015
2017-09-02T13:29:50.677Z,2635
2017-09-02T13:31:01.314Z,2825
2017-09-02T13:32:11.601Z,2780
2017-09-02T13:33:21.242Z,2540
2017-09-02T13:34:31.206Z,2570
2017-09-02T13:35:41.170Z,1930
2017-09-02T13:36:51.138Z,2675
2017-09-02T13:38:01.426Z,2750
2017-09-02T13:39:11.717Z,2720
2017-09-02T13:40:22.003Z,2680
2017-09-02T13:41:31.967Z,2665
2017-09-02T13:42:42.610Z,2615
2017-09-02T13:43:52.898Z,2675
2017-09-02T13:45:02.552Z,2190
2017-09-02T13:46:12.845Z,1720
2017-09-02T13:47:22.816Z,1430
2017-09-02T13:48:33.104Z,1555
2017-09-02T13:49:42.747Z,1815
2017-09-02T13:50:52.713Z,1265
2017-09-02T13:52:02.682Z,1795
2017-09-02T13:53:12.649Z,2335
2017-09-02T13:54:22.937Z,2025
2017-09-02T13:55:33.226Z,1895
2017-09-02T13:56:43.515Z,975
2017-09-02T13:57:53.808Z,790
2017-09-02T13:59:04.100Z,780
2017-09-02T14:00:14.388Z,730
2017-09-02T14:01:24.360Z,740
2017-09-02T14:02:34.325Z,805
2017-09-02T14:03:44.291Z,840
2017-09-02T14:04:54.616Z,860
2017-09-02T14:06:04.258Z,870
2017-09-02T14:07:14.547Z,1155
2017-09-02T14:08:24.830Z,1370
2017-09-02T14:09:34.792Z,1560
2017-09-02T14:10:45.078Z,2625
2017-09-02T14:11:54.716Z,2810
2017-09-02T14:13:05.003Z,2700
2017-09-02T14:14:14.970Z,2700
2017-09-02T14:15:25.259Z,2630
2017-09-02T14:16:35.230Z,2545
2017-09-02T14:17:44.870Z,2435
2017-09-02T14:18:55.156Z,2405
2017-09-02T14:20:05.119Z,2465
2017-09-02T14:21:15.086Z,2435
2017-09-02T14:22:25.373Z,2280
2017-09-02T14:23:35.338Z,2050
2017-09-02T14:24:45.304Z,1780
2017-09-02T14:25:55.274Z,1750
2017-09-02T14:27:05.240Z,1825
2017-09-02T14:28:15.206Z,1935
2017-09-02T14:29:25.492Z,1935
2017-09-02T14:30:35.458Z,2055
2017-09-02T14:31:45.430Z,2230
2017-09-02T14:32:55.398Z,2315
2017-09-02T14:34:05.368Z,2410
2017-09-02T14:35:15.360Z,2370
2017-09-02T14:36:25.001Z,2360
2017-09-02T14:37:34.695Z,2305
2017-09-02T14:38:44.667Z,2315
2017-09-02T14:39:54.957Z,2305
2017-09-02T14:41:05.244Z,2320
2017-09-02T14:42:15.544Z,2400
2017-09-02T14:43:25.832Z,2350
2017-09-02T14:44:35.800Z,2340
2017-09-02T14:45:45.446Z,2330
2017-09-02T14:46:55.417Z,2310
2017-09-02T14:48:05.705Z,2370
2017-09-02T14:49:16.031Z,2370
2017-09-02T14:50:26.317Z,2340
2017-09-02T14:51:35.962Z,2145
2017-09-02T14:52:45.931Z,1980
2017-09-02T14:53:55.897Z,1890
2017-09-02T14:55:05.871Z,2145
2017-09-02T14:56:16.158Z,2300
2017-09-02T14:57:26.446Z,2170
2017-09-02T14:58:36.747Z,2105
2017-09-02T14:59:47.039Z,2185
2017-09-02T15:00:57.005Z,2225
2017-09-02T15:02:07.298Z,2290
2017-09-02T15:03:17.591Z,2340
2017-09-02T15:04:28.032Z,2260
2017-09-02T15:05:38.323Z,2140
2017-09-02T15:06:48.610Z,2145
2017-09-02T15:07:58.579Z,2180
2017-09-02T15:09:08.548Z,1780
2017-09-02T15:10:18.526Z,760
2017-09-02T15:11:28.813Z,1115
2017-09-02T15:12:39.101Z,1630
2017-09-02T15:13:49.388Z,2050
2017-09-02T15:14:59.038Z,2195
2017-09-02T15:16:09.352Z,2155
2017-09-02T15:17:19.643Z,2095
2017-09-02T15:18:29.632Z,2180
2017-09-02T15:19:39.918Z,2230
2017-09-02T15:20:50.207Z,1795
2017-09-02T15:22:00.495Z,965
2017-09-02T15:23:10.461Z,495
2017-09-02T15:24:20.762Z,415
2017-09-02T15:25:31.051Z,410
2017-09-02T15:26:41.022Z,375
2017-09-02T15:27:51.312Z,335
2017-09-02T15:29:01.596Z,325
2017-09-02T15:30:11.562Z,325
2017-09-02T15:31:21.852Z,330
2017-09-02T15:32:31.828Z,280
2017-09-02T15:33:42.156Z,260
2017-09-02T15:34:52.441Z,260
2017-09-02T15:36:02.403Z,260
2017-09-02T15:37:12.368Z,270
2017-09-02T15:38:22.650Z,425
2017-09-02T15:39:32.968Z,335
2017-09-02T15:40:42.949Z,240
2017-09-02T15:41:53.254Z,235
2017-09-02T15:43:03.537Z,240
2017-09-02T15:44:13.822Z,230
2017-09-02T15:45:23.789Z,225
2017-09-02T15:46:33.761Z,225
2017-09-02T15:47:44.045Z,220
2017-09-02T15:48:54.007Z,225
2017-09-02T15:50:04.285Z,225
2017-09-02T15:51:14.569Z,225
2017-09-02T15:52:24.529Z,230
2017-09-02T15:53:34.492Z,225
2017-09-02T15:54:44.129Z,220
2017-09-02T15:55:54.092Z,220
2017-09-02T15:57:04.374Z,225
2017-09-02T15:58:14.331Z,230
2017-09-02T15:59:24.288Z,235
2017-09-02T16:00:34.565Z,235
2017-09-02T16:01:44.525Z,235
2017-09-02T16:02:54.158Z,235
2017-09-02T16:04:04.438Z,230
2017-09-02T16:05:14.402Z,235
2017-09-02T16:06:24.357Z,230
2017-09-02T16:07:34.312Z,225
2017-09-02T16:08:44.591Z,225
2017-09-02T16:09:53.902Z,220
2017-09-02T16:11:04.189Z,215
2017-09-02T16:12:14.157Z,210
2017-09-02T16:13:24.436Z,205
2017-09-02T16:14:34.394Z,200
2017-09-02T16:15:44.672Z,200
2017-09-02T16:16:54.959Z,200
2017-09-02T16:18:04.911Z,200
2017-09-02T16:19:15.192Z,200